Time;durP1;ratioP1;P1;durP2;ratioP2;P2;SDS_P1;SDS_P2;PMS_P1;PMS_P2;Temp;Humidity;BMP_temperature;BMP_pressure;BME280_temperature;BME280_humidity;BME280_pressure;Samples;Min_cycle;Max_cycle;Signal;HPM_P1;HPM_P2
2023/01/23 00:01:50;;;;;;;43.15;23.40;;;-0.90;99.80;;;;;;5041401;28;20021;-78
2023/01/23 00:04:16;;;;;;;45.72;23.70;;;-0.90;99.90;;;;;;5047743;28;20034;-78
2023/01/23 00:06:42;;;;;;;38.15;22.52;;;-0.90;99.90;;;;;;5046783;28;20487;-80
2023/01/23 00:09:08;;;;;;;47.15;24.30;;;-0.80;99.90;;;;;;5051463;28;20029;-81
2023/01/23 00:11:34;;;;;;;38.30;24.23;;;-0.90;99.70;;;;;;5050717;28;20021;-79
2023/01/23 00:14:01;;;;;;;49.70;25.88;;;-0.90;99.60;;;;;;5051214;28;20020;-80
2023/01/23 00:16:30;;;;;;;46.58;23.23;;;-1.00;99.60;;;;;;5051424;28;20082;-80
2023/01/23 00:18:56;;;;;;;40.40;25.13;;;-1.10;99.70;;;;;;5051272;28;20510;-79
2023/01/23 00:21:25;;;;;;;43.22;25.25;;;-1.20;99.80;;;;;;5033529;28;20025;-81
2023/01/23 00:23:52;;;;;;;40.08;24.92;;;-1.20;99.90;;;;;;5051442;28;20025;-79
2023/01/23 00:26:22;;;;;;;46.15;29.98;;;-1.20;99.90;;;;;;5040931;28;20026;-79
2023/01/23 00:28:49;;;;;;;41.92;24.80;;;-1.30;99.90;;;;;;5047942;28;20036;-80
2023/01/23 00:31:18;;;;;;;38.28;21.77;;;-1.30;99.90;;;;;;5051807;28;20025;-78
2023/01/23 00:33:44;;;;;;;41.08;23.35;;;-1.20;99.90;;;;;;5054611;28;20029;-78
2023/01/23 00:36:11;;;;;;;41.83;25.30;;;-1.30;99.90;;;;;;5054544;28;20021;-76
2023/01/23 00:38:37;;;;;;;32.88;20.38;;;-1.30;99.90;;;;;;5054962;28;20024;-76
2023/01/23 00:41:04;;;;;;;37.65;21.77;;;-1.30;99.90;;;;;;5054450;28;20025;-80
2023/01/23 00:43:30;;;;;;;32.92;20.25;;;-1.30;99.90;;;;;;5054712;28;20021;-80
2023/01/23 00:45:56;;;;;;;33.20;18.13;;;-1.40;99.90;;;;;;5054296;28;20025;-84
2023/01/23 00:48:22;;;;;;;35.17;21.15;;;-1.50;99.90;;;;;;5055089;28;20047;-86
2023/01/23 00:50:48;;;;;;;41.63;24.40;;;-1.60;99.90;;;;;;5048557;28;20100;-80
2023/01/23 00:53:14;;;;;;;44.20;24.05;;;-1.60;99.90;;;;;;5054367;28;20392;-78
2023/01/23 00:55:41;;;;;;;44.42;21.75;;;-1.70;99.90;;;;;;5053425;28;20021;-79
2023/01/23 00:58:07;;;;;;;41.88;24.83;;;-1.60;99.90;;;;;;5053954;28;20452;-79
2023/01/23 01:00:34;;;;;;;44.10;22.20;;;-1.60;99.90;;;;;;5054293;28;20028;-79
2023/01/23 01:03:00;;;;;;;36.95;19.80;;;-1.60;99.90;;;;;;5052213;28;20083;-78
2023/01/23 01:05:26;;;;;;;43.38;23.63;;;-1.70;99.90;;;;;;5054229;28;20100;-77
2023/01/23 01:07:52;;;;;;;39.72;23.63;;;-1.70;99.90;;;;;;5050101;28;20037;-81
2023/01/23 01:10:18;;;;;;;38.95;20.77;;;-1.80;99.90;;;;;;5036476;28;20029;-79
2023/01/23 01:12:45;;;;;;;43.08;25.52;;;-1.80;99.90;;;;;;5053999;28;20475;-78
2023/01/23 01:15:12;;;;;;;51.40;23.50;;;-1.70;99.90;;;;;;5053917;28;20026;-79
2023/01/23 01:17:38;;;;;;;46.03;23.48;;;-1.70;99.90;;;;;;5054127;28;20037;-79
2023/01/23 01:20:05;;;;;;;48.95;23.65;;;-1.60;99.90;;;;;;5053915;28;20048;-79
2023/01/23 01:22:32;;;;;;;49.85;25.02;;;-1.50;99.90;;;;;;5054828;28;20419;-78
2023/01/23 01:24:57;;;;;;;42.42;23.13;;;-1.40;99.90;;;;;;5052010;28;20036;-77
2023/01/23 01:27:23;;;;;;;46.95;26.98;;;-1.30;99.90;;;;;;5042201;28;20036;-80
2023/01/23 01:29:49;;;;;;;50.20;24.17;;;-1.30;99.90;;;;;;5054032;28;20017;-79
2023/01/23 01:32:15;;;;;;;50.45;26.67;;;-1.40;99.90;;;;;;5054711;28;20387;-79
2023/01/23 01:34:41;;;;;;;41.17;22.55;;;-1.30;99.90;;;;;;5054386;28;20028;-78
2023/01/23 01:37:07;;;;;;;44.75;22.42;;;-1.40;99.90;;;;;;5054302;28;20048;-78
2023/01/23 01:39:33;;;;;;;37.78;20.90;;;-1.40;99.90;;;;;;5054057;28;20099;-80
2023/01/23 01:41:58;;;;;;;37.20;21.60;;;-1.40;99.90;;;;;;5053319;28;20025;-79
2023/01/23 01:44:24;;;;;;;49.72;24.95;;;-1.40;99.90;;;;;;5053958;28;20025;-80
2023/01/23 01:46:50;;;;;;;39.50;22.80;;;-1.30;99.90;;;;;;5053580;28;20112;-81
2023/01/23 01:49:24;;;;;;;45.28;23.33;;;-1.30;99.90;;;;;;5054904;28;20075;-78
2023/01/23 01:52:00;;;;;;;41.30;22.13;;;-1.20;99.90;;;;;;5054673;28;20388;-79
2023/01/23 01:54:37;;;;;;;42.00;22.70;;;-1.20;99.90;;;;;;5048520;28;20023;-80
2023/01/23 01:57:03;;;;;;;;;;;-1.10;99.90;;;;;;5054075;28;20445;-81
2023/01/23 01:59:35;;;;;;;33.58;19.98;;;-1.20;99.90;;;;;;5043092;28;20026;-79
2023/01/23 02:02:12;;;;;;;35.97;20.00;;;-1.30;99.90;;;;;;5053381;28;20029;-80
2023/01/23 02:04:42;;;;;;;40.45;23.08;;;-1.30;99.90;;;;;;5049430;28;20681;-80
2023/01/23 02:07:42;;;;;;;43.00;23.15;;;-1.30;99.90;;;;;;5043432;28;20041;-78
2023/01/23 02:10:08;;;;;;;34.65;20.73;;;-1.30;99.90;;;;;;5021768;28;20606;-80
2023/01/23 02:12:35;;;;;;;35.43;18.10;;;-1.30;99.90;;;;;;5053068;28;20126;-79
2023/01/23 02:15:02;;;;;;;37.13;18.73;;;-1.30;99.90;;;;;;5034678;28;20545;-78
2023/01/23 02:17:30;;;;;;;35.75;19.17;;;-1.30;99.90;;;;;;5053221;28;20395;-79
2023/01/23 02:20:02;;;;;;;;;;;-1.30;99.90;;;;;;5053147;28;20021;-78
2023/01/23 02:22:48;;;;;;;35.45;20.33;;;-1.20;99.90;;;;;;5052972;28;19940;-79
2023/01/23 02:25:31;;;;;;;30.58;18.52;;;-1.20;99.90;;;;;;5050400;28;20029;-79
2023/01/23 02:27:57;;;;;;;38.72;23.40;;;-1.20;99.90;;;;;;5050442;28;20500;-78
2023/01/23 02:30:23;;;;;;;37.90;21.40;;;-1.20;99.90;;;;;;5050868;28;20033;-79
2023/01/23 02:32:49;;;;;;;37.65;23.17;;;-1.30;99.90;;;;;;5052585;28;20400;-77
2023/01/23 02:35:25;;;;;;;39.13;20.27;;;-1.30;99.90;;;;;;5052234;28;20095;-78
2023/01/23 02:37:55;;;;;;;32.10;17.92;;;-1.40;99.90;;;;;;5034087;28;20017;-78
2023/01/23 02:40:30;;;;;;;35.03;21.55;;;-1.40;99.90;;;;;;5052303;28;20029;-78
2023/01/23 02:42:57;;;;;;;41.15;22.25;;;-1.40;99.90;;;;;;5052209;28;20445;-77
2023/01/23 02:45:24;;;;;;;37.78;21.35;;;-1.50;99.90;;;;;;5052192;28;20025;-77
2023/01/23 02:47:50;;;;;;;32.35;19.83;;;-1.40;99.90;;;;;;5052242;28;20075;-77
2023/01/23 02:50:16;;;;;;;31.30;19.25;;;-1.30;99.90;;;;;;5052069;28;20061;-77
2023/01/23 02:52:42;;;;;;;30.52;16.00;;;-1.40;99.90;;;;;;5052239;28;20017;-79
2023/01/23 02:55:08;;;;;;;35.75;21.27;;;-1.30;99.90;;;;;;5051362;28;20031;-77
2023/01/23 02:57:34;;;;;;;35.85;19.13;;;-1.50;99.90;;;;;;5051915;28;20017;-77
2023/01/23 03:00:15;;;;;;;42.47;24.42;;;-1.50;99.90;;;;;;5044405;28;20123;-76
2023/01/23 03:02:42;;;;;;;38.85;22.27;;;-1.50;99.90;;;;;;5051956;28;20075;-77
2023/01/23 03:05:08;;;;;;;42.53;24.50;;;-1.40;99.90;;;;;;5052345;28;20058;-78
2023/01/23 03:07:34;;;;;;;39.40;23.42;;;-1.30;99.90;;;;;;5051528;28;20129;-78
2023/01/23 03:10:02;;;;;;;38.72;20.10;;;-1.30;99.90;;;;;;5052094;28;20013;-78
2023/01/23 03:12:27;;;;;;;27.95;14.50;;;-1.20;99.90;;;;;;5017658;28;20541;-77
2023/01/23 03:14:54;;;;;;;26.33;15.50;;;-1.30;99.90;;;;;;5051670;28;20032;-78
2023/01/23 03:17:21;;;;;;;32.30;16.65;;;-1.30;99.90;;;;;;5051965;28;20045;-79
2023/01/23 03:19:47;;;;;;;24.15;13.10;;;-1.30;99.90;;;;;;5051855;28;20021;-79
2023/01/23 03:22:13;;;;;;;23.75;15.88;;;-1.40;99.90;;;;;;5052326;28;20036;-78
2023/01/23 03:24:39;;;;;;;32.28;18.17;;;-1.40;99.90;;;;;;5051927;28;20040;-77
2023/01/23 03:27:06;;;;;;;30.63;18.30;;;-1.30;99.90;;;;;;5049869;28;20020;-78
2023/01/23 03:32:16;;;;;;;26.95;14.70;;;-1.30;99.90;;;;;;5051393;28;20048;-78
2023/01/23 03:34:42;;;;;;;26.33;15.73;;;-1.30;99.90;;;;;;5051572;28;20039;-77
2023/01/23 03:37:10;;;;;;;21.70;13.45;;;-1.30;99.90;;;;;;5047560;28;20032;-79
2023/01/23 03:42:21;;;;;;;20.27;12.75;;;-1.20;99.90;;;;;;5051729;28;20163;-78
2023/01/23 03:44:47;;;;;;;30.35;14.68;;;-1.20;99.90;;;;;;5051547;28;20024;-78
2023/01/23 03:47:13;;;;;;;22.10;10.90;;;-1.20;99.80;;;;;;5051315;28;20549;-79
2023/01/23 03:49:39;;;;;;;14.52;9.05;;;-1.30;99.40;;;;;;5051407;28;20107;-78
2023/01/23 03:52:05;;;;;;;20.92;12.95;;;-1.30;99.40;;;;;;5051331;28;20028;-77
2023/01/23 03:54:31;;;;;;;21.55;12.80;;;-1.30;99.50;;;;;;5051338;28;20472;-77
2023/01/23 03:56:57;;;;;;;26.13;15.27;;;-1.30;99.40;;;;;;5051199;28;20021;-79
2023/01/23 03:59:23;;;;;;;27.25;14.85;;;-1.20;99.50;;;;;;5050999;28;20099;-78
2023/01/23 04:01:48;;;;;;;20.35;13.40;;;-1.20;99.50;;;;;;5046191;28;20025;-79
2023/01/23 04:04:14;;;;;;;25.65;14.52;;;-1.10;99.50;;;;;;5048322;28;20029;-78
2023/01/23 04:06:40;;;;;;;29.67;16.35;;;-1.10;99.30;;;;;;5053712;28;20502;-78
2023/01/23 04:09:06;;;;;;;33.17;18.48;;;-1.10;99.20;;;;;;5036986;28;20199;-77
2023/01/23 04:11:32;;;;;;;32.10;17.92;;;-1.20;99.20;;;;;;5055347;28;20028;-78
2023/01/23 04:13:57;;;;;;;33.35;18.08;;;-1.30;99.20;;;;;;5055293;28;20091;-79
2023/01/23 04:16:23;;;;;;;30.55;18.05;;;-1.40;99.30;;;;;;5055186;28;20090;-80
2023/01/23 04:18:50;;;;;;;38.45;19.67;;;-1.40;99.40;;;;;;5037126;28;20021;-78
2023/01/23 04:21:16;;;;;;;36.60;19.60;;;-1.40;99.50;;;;;;5055370;28;20078;-79
2023/01/23 04:23:42;;;;;;;41.08;22.08;;;-1.40;99.50;;;;;;5055070;28;20297;-79
2023/01/23 04:26:08;;;;;;;37.00;19.45;;;-1.50;99.60;;;;;;5055460;28;20469;-80
2023/01/23 04:28:33;;;;;;;35.88;20.92;;;-1.50;99.80;;;;;;5054925;28;20043;-78
2023/01/23 04:30:59;;;;;;;37.47;20.33;;;-1.50;99.90;;;;;;5055722;28;20088;-79
2023/01/23 04:33:25;;;;;;;39.97;19.40;;;-1.50;99.90;;;;;;5052304;28;20028;-78
2023/01/23 04:35:58;;;;;;;34.40;19.10;;;-1.50;99.90;;;;;;5055106;28;20017;-78
2023/01/23 04:38:25;;;;;;;39.72;20.23;;;-1.60;99.90;;;;;;5054945;28;20033;-78
2023/01/23 04:40:52;;;;;;;42.63;20.08;;;-1.60;99.90;;;;;;5056524;28;20017;-79
2023/01/23 04:43:18;;;;;;;44.58;21.38;;;-1.60;99.90;;;;;;5056516;28;20043;-79
2023/01/23 04:45:44;;;;;;;37.25;20.63;;;-1.60;99.90;;;;;;5072185;28;20070;-81
2023/01/23 04:48:12;;;;;;;36.63;21.23;;;-1.50;99.90;;;;;;5069695;28;20036;-79
2023/01/23 04:50:38;;;;;;;36.95;19.45;;;-1.50;99.90;;;;;;5063788;28;20013;-80
2023/01/23 04:53:04;;;;;;;39.40;22.60;;;-1.50;99.90;;;;;;5060242;28;20029;-78
2023/01/23 04:55:30;;;;;;;32.85;18.25;;;-1.50;99.90;;;;;;5067920;28;20021;-78
2023/01/23 04:57:56;;;;;;;33.15;18.70;;;-1.60;99.90;;;;;;5059506;28;20020;-79
2023/01/23 05:00:22;;;;;;;44.80;24.70;;;-1.70;99.90;;;;;;5054919;28;20037;-79
2023/01/23 05:02:48;;;;;;;34.88;19.73;;;-1.70;99.90;;;;;;5054436;28;20044;-78
2023/01/23 05:05:19;;;;;;;34.10;19.23;;;-1.80;99.90;;;;;;5049351;28;20044;-80
2023/01/23 05:07:46;;;;;;;28.83;16.42;;;-1.80;99.90;;;;;;5055210;28;20040;-78
2023/01/23 05:10:13;;;;;;;40.38;18.50;;;-1.80;99.90;;;;;;5054591;28;20079;-80
2023/01/23 05:12:39;;;;;;;30.35;17.20;;;-1.80;99.90;;;;;;5054121;28;20029;-79
2023/01/23 05:15:07;;;;;;;30.90;18.27;;;-1.80;99.90;;;;;;5054137;28;20468;-79
2023/01/23 05:17:32;;;;;;;31.70;17.77;;;-1.80;99.90;;;;;;5035971;28;20067;-80
2023/01/23 05:19:58;;;;;;;32.63;17.13;;;-1.80;99.90;;;;;;5054387;28;20053;-79
2023/01/23 05:22:24;;;;;;;35.20;17.83;;;-1.90;99.90;;;;;;5054232;28;20021;-81
2023/01/23 05:24:50;;;;;;;24.42;15.50;;;-1.90;99.90;;;;;;5035801;28;20021;-80
2023/01/23 05:27:16;;;;;;;28.92;16.95;;;-1.90;99.90;;;;;;5054188;28;20055;-81
2023/01/23 05:29:42;;;;;;;31.65;17.67;;;-1.80;99.90;;;;;;5035753;28;20021;-80
2023/01/23 05:32:08;;;;;;;32.75;18.92;;;-1.70;99.90;;;;;;5035507;28;20025;-80
2023/01/23 05:34:34;;;;;;;36.72;17.55;;;-1.70;99.90;;;;;;5044367;28;20040;-79
2023/01/23 05:36:59;;;;;;;33.55;18.40;;;-1.70;99.90;;;;;;5048393;28;20096;-79
2023/01/23 05:39:25;;;;;;;37.83;18.55;;;-1.60;99.90;;;;;;5042605;28;20037;-80
2023/01/23 05:41:51;;;;;;;31.42;15.63;;;-1.60;99.90;;;;;;5053762;28;20025;-80
2023/01/23 05:44:17;;;;;;;30.77;15.75;;;-1.60;99.90;;;;;;5053925;28;20106;-81
2023/01/23 05:46:43;;;;;;;29.50;17.13;;;-1.60;99.90;;;;;;5053771;28;20033;-80
2023/01/23 05:49:08;;;;;;;25.80;16.48;;;-1.50;99.90;;;;;;5053420;28;20032;-80
2023/01/23 05:51:35;;;;;;;25.95;16.73;;;-1.50;99.90;;;;;;5053561;28;20106;-81
2023/01/23 05:54:01;;;;;;;30.67;16.27;;;-1.50;99.90;;;;;;5053097;28;20044;-81
2023/01/23 05:56:27;;;;;;;29.65;16.40;;;-1.50;99.90;;;;;;5035038;28;20118;-80
2023/01/23 05:58:53;;;;;;;32.75;17.10;;;-1.40;99.90;;;;;;5052947;28;20093;-79
2023/01/23 06:01:20;;;;;;;24.15;14.45;;;-1.40;99.90;;;;;;5053041;28;20079;-80
2023/01/23 06:03:46;;;;;;;22.63;13.43;;;-1.50;99.90;;;;;;5053196;28;20037;-81
2023/01/23 06:06:12;;;;;;;23.65;13.52;;;-1.50;99.90;;;;;;5051653;28;20025;-79
2023/01/23 06:08:38;;;;;;;22.08;12.65;;;-1.60;99.90;;;;;;5052850;28;20404;-80
2023/01/23 06:11:04;;;;;;;28.67;12.82;;;-1.60;99.90;;;;;;5052163;28;20029;-81
2023/01/23 06:13:30;;;;;;;29.80;14.07;;;-1.70;99.80;;;;;;5053165;28;20025;-78
2023/01/23 06:15:56;;;;;;;25.30;14.32;;;-1.90;99.60;;;;;;5052891;28;20028;-78
2023/01/23 06:18:22;;;;;;;29.33;17.27;;;-2.00;99.70;;;;;;5052880;28;20075;-79
2023/01/23 06:20:48;;;;;;;30.25;15.35;;;-2.00;99.90;;;;;;5046111;28;20044;-80
2023/01/23 06:23:15;;;;;;;26.70;13.77;;;-1.90;99.90;;;;;;5048311;28;20025;-80
2023/01/23 06:25:41;;;;;;;27.48;15.02;;;-1.80;99.90;;;;;;5052707;28;20021;-79
2023/01/23 06:28:07;;;;;;;25.73;15.68;;;-1.70;99.90;;;;;;5040939;28;20033;-81
2023/01/23 06:30:33;;;;;;;30.58;15.25;;;-1.70;99.90;;;;;;5051227;28;20376;-79
2023/01/23 06:32:59;;;;;;;28.77;17.20;;;-1.70;99.90;;;;;;5052535;28;20025;-79
2023/01/23 06:35:24;;;;;;;37.30;15.65;;;-1.70;99.90;;;;;;5053024;28;20021;-79
2023/01/23 06:37:50;;;;;;;29.27;15.98;;;-1.70;99.90;;;;;;5026158;28;20109;-80
2023/01/23 06:40:17;;;;;;;31.58;17.17;;;-1.70;99.90;;;;;;5048424;28;20025;-81
2023/01/23 06:42:42;;;;;;;25.55;14.63;;;-1.70;99.90;;;;;;5052528;28;20023;-81
2023/01/23 06:45:10;;;;;;;24.77;13.70;;;-1.80;99.90;;;;;;5052450;28;20099;-80
2023/01/23 06:47:36;;;;;;;24.75;15.20;;;-2.00;99.90;;;;;;5051242;28;20055;-80
2023/01/23 06:50:02;;;;;;;16.13;9.75;;;-2.00;99.90;;;;;;5052364;28;20386;-81
2023/01/23 06:52:29;;;;;;;18.60;12.27;;;-2.00;99.90;;;;;;5052000;28;20025;-80
2023/01/23 06:54:55;;;;;;;21.13;13.05;;;-2.20;99.90;;;;;;5034343;28;20392;-80
2023/01/23 06:57:21;;;;;;;22.52;12.43;;;-2.30;99.90;;;;;;5051967;28;20024;-80
2023/01/23 06:59:46;;;;;;;29.67;14.10;;;-2.30;99.90;;;;;;5034218;28;20560;-80
2023/01/23 07:02:12;;;;;;;21.05;13.88;;;-2.30;99.90;;;;;;5051957;28;20025;-80
2023/01/23 07:04:38;;;;;;;15.88;10.38;;;-2.30;99.90;;;;;;5051962;28;20020;-80
2023/01/23 07:07:04;;;;;;;22.85;13.80;;;-2.30;99.90;;;;;;5052191;28;20032;-80
2023/01/23 07:09:30;;;;;;;23.05;13.90;;;-2.40;99.90;;;;;;5034753;28;20025;-79
2023/01/23 07:11:56;;;;;;;21.98;13.10;;;-2.50;99.90;;;;;;5051899;28;20039;-79
2023/01/23 07:14:22;;;;;;;26.25;13.50;;;-2.50;99.90;;;;;;5051785;28;20025;-79
2023/01/23 07:16:48;;;;;;;26.67;14.65;;;-2.50;99.90;;;;;;5051383;28;20032;-80
2023/01/23 07:19:14;;;;;;;22.15;13.18;;;-2.40;99.90;;;;;;5052048;28;20089;-78
2023/01/23 07:21:39;;;;;;;24.73;14.82;;;-2.30;99.90;;;;;;5051906;28;20028;-79
2023/01/23 07:24:06;;;;;;;26.17;15.63;;;-2.30;99.90;;;;;;5052209;28;20043;-79
2023/01/23 07:26:32;;;;;;;23.42;12.60;;;-2.20;99.90;;;;;;5051535;28;20210;-79
2023/01/23 07:28:58;;;;;;;18.98;11.95;;;-2.20;99.90;;;;;;5044220;28;20022;-80
2023/01/23 07:31:24;;;;;;;19.75;10.43;;;-2.10;99.90;;;;;;5050460;28;20361;-81
2023/01/23 07:33:50;;;;;;;20.20;11.77;;;-2.00;99.90;;;;;;5033558;28;20036;-80
2023/01/23 07:36:17;;;;;;;24.63;13.18;;;-2.00;99.90;;;;;;5051446;28;20059;-80
2023/01/23 07:38:43;;;;;;;22.77;11.93;;;-1.90;99.90;;;;;;5042167;28;20025;-81
2023/01/23 07:41:09;;;;;;;21.23;11.60;;;-1.80;99.90;;;;;;5046661;28;20438;-80
2023/01/23 07:43:35;;;;;;;17.45;9.90;;;-1.80;99.90;;;;;;5051296;28;20092;-81
2023/01/23 07:46:01;;;;;;;20.23;11.77;;;-1.90;99.80;;;;;;5051407;28;20025;-81
2023/01/23 07:48:28;;;;;;;19.30;13.27;;;-2.00;99.80;;;;;;5033176;28;20033;-80
2023/01/23 07:50:54;;;;;;;19.57;11.93;;;-2.00;99.90;;;;;;5047067;28;20438;-81
2023/01/23 07:53:20;;;;;;;25.30;13.13;;;-1.90;99.90;;;;;;5051062;28;20064;-81
2023/01/23 07:55:46;;;;;;;17.20;12.05;;;-1.80;99.90;;;;;;5051391;28;20048;-80
2023/01/23 07:58:12;;;;;;;22.77;13.73;;;-1.80;99.80;;;;;;5033693;28;20025;-82
2023/01/23 08:00:40;;;;;;;23.08;13.57;;;-1.80;99.60;;;;;;5051281;28;20471;-80
2023/01/23 08:03:06;;;;;;;26.33;14.40;;;-1.80;99.50;;;;;;5051881;28;20027;-82
2023/01/23 08:05:32;;;;;;;27.58;15.55;;;-2.00;98.90;;;;;;5051557;28;20024;-82
2023/01/23 08:07:58;;;;;;;19.92;10.88;;;-2.10;99.30;;;;;;5051102;28;20059;-82
2023/01/23 08:10:23;;;;;;;24.17;14.15;;;-2.10;99.50;;;;;;5051211;28;20098;-81
2023/01/23 08:12:49;;;;;;;28.10;13.23;;;-2.20;99.60;;;;;;5033185;28;20050;-81
2023/01/23 08:15:15;;;;;;;25.85;14.65;;;-2.20;99.60;;;;;;5051111;28;20102;-81
2023/01/23 08:17:41;;;;;;;28.15;15.57;;;-2.20;99.80;;;;;;5051815;28;20025;-82
2023/01/23 08:20:07;;;;;;;22.45;11.50;;;-2.20;99.70;;;;;;5051381;28;20041;-81
2023/01/23 08:22:33;;;;;;;30.37;15.50;;;-2.10;99.80;;;;;;5051725;28;20021;-81
2023/01/23 08:24:59;;;;;;;24.17;11.95;;;-2.10;99.90;;;;;;5051740;28;20021;-83
2023/01/23 08:27:25;;;;;;;23.10;13.63;;;-2.00;99.90;;;;;;5051283;28;20116;-83
2023/01/23 08:29:51;;;;;;;21.65;13.05;;;-2.00;99.60;;;;;;5050938;28;20025;-81
2023/01/23 08:32:16;;;;;;;22.00;12.30;;;-2.00;99.80;;;;;;5029146;28;20029;-82
2023/01/23 08:34:42;;;;;;;22.83;13.65;;;-1.90;99.80;;;;;;5047850;28;20017;-81
2023/01/23 08:37:08;;;;;;;22.05;12.75;;;-1.80;99.70;;;;;;5050252;28;20064;-80
2023/01/23 08:39:34;;;;;;;23.00;13.55;;;-1.90;99.40;;;;;;5050210;28;20079;-81
2023/01/23 08:42:00;;;;;;;21.50;11.00;;;-1.90;99.50;;;;;;5050847;28;20017;-81
2023/01/23 08:44:25;;;;;;;26.70;15.73;;;-2.00;99.40;;;;;;5051639;28;20029;-82
2023/01/23 08:46:51;;;;;;;23.65;13.75;;;-2.00;99.50;;;;;;5051167;28;20113;-82
2023/01/23 08:49:19;;;;;;;19.98;11.68;;;-2.00;99.70;;;;;;5044804;28;20032;-81
2023/01/23 08:51:45;;;;;;;21.27;11.65;;;-1.90;99.50;;;;;;5051267;28;20053;-81
2023/01/23 08:54:11;;;;;;;14.85;9.60;;;-1.90;99.30;;;;;;5036649;28;20431;-82
2023/01/23 08:56:39;;;;;;;12.57;7.90;;;-1.90;99.10;;;;;;5036503;28;20098;-84
2023/01/23 08:59:05;;;;;;;21.23;11.07;;;-2.00;98.80;;;;;;5036427;28;20407;-82
2023/01/23 09:01:31;;;;;;;14.80;9.80;;;-2.20;98.90;;;;;;5055111;28;20021;-83
2023/01/23 09:03:57;;;;;;;20.45;11.57;;;-2.20;99.00;;;;;;5054579;28;20021;-80
2023/01/23 09:06:23;;;;;;;23.60;12.32;;;-2.20;99.10;;;;;;5054126;28;20036;-78
2023/01/23 09:08:49;;;;;;;21.58;12.27;;;-2.10;99.30;;;;;;5046694;28;20029;-80
2023/01/23 09:11:15;;;;;;;19.10;11.02;;;-2.00;99.30;;;;;;5053838;28;20039;-78
2023/01/23 09:13:41;;;;;;;19.42;11.48;;;-2.00;99.00;;;;;;5053934;28;20041;-79
2023/01/23 09:16:08;;;;;;;21.58;12.07;;;-1.90;98.90;;;;;;5054496;28;20062;-78
2023/01/23 09:18:34;;;;;;;20.60;11.07;;;-1.90;99.00;;;;;;5053780;28;20029;-80
2023/01/23 09:21:06;;;;;;;22.63;11.32;;;-1.90;98.70;;;;;;5035796;28;20017;-79
2023/01/23 09:23:32;;;;;;;23.30;12.05;;;-2.00;98.80;;;;;;5053856;28;20092;-80
2023/01/23 09:26:10;;;;;;;20.63;12.50;;;-2.00;99.10;;;;;;5053822;28;20056;-79
2023/01/23 09:28:37;;;;;;;15.75;9.50;;;-1.90;98.80;;;;;;5053668;28;20025;-78
2023/01/23 09:31:08;;;;;;;20.20;12.63;;;-2.00;98.70;;;;;;5053259;28;20023;-81
2023/01/23 09:33:34;;;;;;;23.08;12.05;;;-2.10;98.70;;;;;;5016659;28;20489;-81
2023/01/23 09:36:01;;;;;;;24.13;11.45;;;-2.00;98.80;;;;;;5041769;28;20029;-81
2023/01/23 09:38:26;;;;;;;21.10;12.90;;;-2.00;98.90;;;;;;5035669;28;20480;-80
2023/01/23 09:40:56;;;;;;;20.85;13.10;;;-2.20;98.40;;;;;;5053616;28;20027;-80
2023/01/23 09:43:24;;;;;;;19.48;12.63;;;-2.20;98.90;;;;;;5035708;28;20503;-81
2023/01/23 09:46:02;;;;;;;22.85;14.73;;;-2.20;99.00;;;;;;5053565;28;20372;-81
2023/01/23 09:48:38;;;;;;;20.52;11.23;;;-2.10;99.10;;;;;;5046247;28;20037;-82
2023/01/23 09:51:23;;;;;;;24.15;14.15;;;-2.00;99.10;;;;;;5039864;28;20067;-82
2023/01/23 09:53:49;;;;;;;22.27;11.02;;;-1.90;99.00;;;;;;5030766;28;20399;-81
2023/01/23 09:56:29;;;;;;;26.00;14.73;;;-2.10;98.30;;;;;;5053538;28;20056;-81
2023/01/23 09:59:01;;;;;;;27.30;16.10;;;-2.30;98.60;;;;;;5035531;28;20535;-81
2023/01/23 10:01:29;;;;;;;23.63;14.63;;;-2.30;99.10;;;;;;5051046;28;20029;-81
2023/01/23 10:03:59;;;;;;;25.13;14.95;;;-2.30;98.80;;;;;;5053969;28;20506;-79
2023/01/23 10:06:31;;;;;;;27.05;15.02;;;-2.30;98.90;;;;;;5054186;28;20040;-80
2023/01/23 10:09:30;;;;;;;28.00;12.27;;;-2.20;99.10;;;;;;5027329;28;20029;-82
2023/01/23 10:12:05;;;;;;;33.78;16.13;;;-2.00;98.90;;;;;;5044717;28;20033;-81
2023/01/23 10:14:31;;;;;;;30.48;15.27;;;-1.90;98.70;;;;;;5053145;28;20499;-80
2023/01/23 10:17:06;;;;;;;23.48;14.52;;;-1.80;98.60;;;;;;5052989;28;20021;-81
2023/01/23 10:19:38;;;;;;;28.58;14.07;;;-1.60;98.50;;;;;;5035453;28;20076;-80
2023/01/23 10:22:32;;;;;;;29.63;16.23;;;-1.70;98.00;;;;;;5034982;28;20017;-80
2023/01/23 10:25:01;;;;;;;30.75;17.38;;;-1.70;98.00;;;;;;5035010;28;20111;-79
2023/01/23 10:27:37;;;;;;;25.38;13.93;;;-1.60;98.00;;;;;;5052740;28;20041;-80
2023/01/23 10:30:23;;;;;;;28.13;13.68;;;-1.60;97.20;;;;;;5052894;28;20036;-80
2023/01/23 10:32:55;;;;;;;29.67;16.67;;;-1.80;97.20;;;;;;5052759;28;20055;-80
2023/01/23 10:35:52;;;;;;;30.65;14.43;;;-1.80;97.60;;;;;;5052616;28;20369;-79
2023/01/23 10:38:42;;;;;;;27.17;15.88;;;-1.70;97.60;;;;;;5052793;28;20025;-79
2023/01/23 10:41:14;;;;;;;29.05;14.73;;;-1.80;97.10;;;;;;5033337;28;20034;-80
2023/01/23 10:43:49;;;;;;;37.63;18.83;;;-1.80;97.10;;;;;;5045154;28;20795;-79
2023/01/23 10:46:18;;;;;;;33.97;17.58;;;-1.80;97.40;;;;;;5040968;28;20016;-80
2023/01/23 10:48:47;;;;;;;33.25;19.15;;;-1.60;97.40;;;;;;5052255;28;20502;-80
2023/01/23 10:51:34;;;;;;;36.67;20.95;;;-1.60;97.00;;;;;;5052410;28;20495;-80
2023/01/23 10:54:17;;;;;;;32.45;16.67;;;-1.50;96.90;;;;;;5052101;28;20045;-79
2023/01/23 10:57:00;;;;;;;24.30;11.40;;;-1.50;96.80;;;;;;5052558;28;20422;-79
2023/01/23 10:59:40;;;;;;;28.33;16.10;;;-1.40;96.60;;;;;;5037456;28;20457;-80
2023/01/23 11:02:11;;;;;;;34.38;17.10;;;-1.30;96.40;;;;;;5046411;28;20096;-80
2023/01/23 11:04:39;;;;;;;26.67;15.05;;;-1.30;96.30;;;;;;5051121;28;20021;-80
2023/01/23 11:07:14;;;;;;;31.08;15.77;;;-1.30;96.00;;;;;;5052119;28;20075;-80
2023/01/23 11:09:51;;;;;;;30.80;16.27;;;-1.40;96.20;;;;;;5051645;28;20017;-79
2023/01/23 11:12:20;;;;;;;28.38;13.75;;;-1.40;96.00;;;;;;5051767;28;20438;-79
2023/01/23 11:14:46;;;;;;;29.58;15.63;;;-1.50;95.50;;;;;;5051047;28;20029;-80
2023/01/23 11:17:20;;;;;;;28.00;15.93;;;-1.60;95.90;;;;;;5051702;28;20067;-81
2023/01/23 11:19:48;;;;;;;25.25;14.05;;;-1.60;96.10;;;;;;5051481;28;20028;-80
2023/01/23 11:22:30;;;;;;;32.45;18.00;;;-1.50;96.20;;;;;;5052219;28;20096;-79
2023/01/23 11:24:57;;;;;;;31.35;15.90;;;-1.50;96.20;;;;;;5052058;28;20032;-80
2023/01/23 11:27:29;;;;;;;25.45;15.90;;;-1.50;96.20;;;;;;5051069;28;20033;-81
2023/01/23 11:30:07;;;;;;;31.45;16.90;;;-1.40;96.20;;;;;;5051617;28;20027;-79
2023/01/23 11:32:52;;;;;;;32.10;17.95;;;-1.40;96.30;;;;;;5052069;28;20029;-79
2023/01/23 11:36:01;;;;;;;36.20;16.33;;;-1.20;96.50;;;;;;5033470;28;20051;-77
2023/01/23 11:38:42;;;;;;;27.75;17.63;;;-1.20;96.10;;;;;;4973791;28;20536;-79
2023/01/23 11:41:11;;;;;;;38.08;18.10;;;-1.20;96.00;;;;;;4944244;28;20051;-79
2023/01/23 11:43:38;;;;;;;33.30;15.70;;;-1.20;96.20;;;;;;5008019;28;20060;-79
2023/01/23 11:46:33;;;;;;;27.92;15.77;;;-1.20;96.10;;;;;;5039946;28;20025;-80
2023/01/23 11:49:19;;;;;;;26.77;14.48;;;-1.30;96.20;;;;;;5046757;28;20068;-78
2023/01/23 11:52:17;;;;;;;31.58;16.73;;;-1.40;96.30;;;;;;5043393;28;20052;-79
2023/01/23 11:54:49;;;;;;;28.92;17.17;;;-1.40;96.60;;;;;;5031171;28;20034;-78
2023/01/23 11:57:36;;;;;;;27.90;15.20;;;-1.50;96.70;;;;;;5051438;28;20028;-83
2023/01/23 12:00:10;;;;;;;32.90;16.45;;;-1.50;96.80;;;;;;5051386;28;20047;-84
2023/01/23 12:02:52;;;;;;;36.67;17.83;;;-1.60;97.00;;;;;;5042027;28;20045;-82
2023/01/23 12:05:42;;;;;;;29.23;15.07;;;-1.50;97.30;;;;;;5043418;28;20021;-81
2023/01/23 12:08:45;;;;;;;28.52;13.65;;;-1.40;97.20;;;;;;5052265;28;20033;-82
2023/01/23 12:11:15;;;;;;;29.95;14.68;;;-1.50;97.10;;;;;;5052843;28;20056;-82
2023/01/23 12:14:11;;;;;;;32.35;17.42;;;-1.60;97.30;;;;;;5052439;28;20025;-83
2023/01/23 12:16:49;;;;;;;32.90;16.75;;;-1.60;97.40;;;;;;5035146;28;20052;-82
2023/01/23 12:19:42;;;;;;;36.03;17.58;;;-1.50;97.60;;;;;;5052882;28;20483;-81
2023/01/23 12:22:27;;;;;;;31.35;14.48;;;-1.50;97.50;;;;;;5051725;28;20036;-80
2023/01/23 12:24:59;;;;;;;32.47;15.73;;;-1.40;97.50;;;;;;5033460;28;20027;-81
2023/01/23 12:27:45;;;;;;;21.05;10.60;;;-1.50;97.40;;;;;;5053892;28;20036;-80
2023/01/23 12:30:28;;;;;;;26.35;13.45;;;-1.50;97.60;;;;;;5035819;28;20021;-79
2023/01/23 12:33:18;;;;;;;30.25;15.68;;;-1.50;97.60;;;;;;5036745;28;20123;-77
2023/01/23 12:36:23;;;;;;;28.00;16.02;;;-1.60;97.80;;;;;;5043849;28;20076;-82
2023/01/23 12:39:13;;;;;;;37.75;16.15;;;-1.50;97.90;;;;;;5052957;28;20021;-80
2023/01/23 12:41:48;;;;;;;29.65;14.98;;;-1.40;97.80;;;;;;5055010;28;20086;-86
2023/01/23 12:44:29;;;;;;;30.55;15.85;;;-1.50;97.70;;;;;;5051781;28;20054;-79
2023/01/23 12:47:04;;;;;;;31.77;15.93;;;-1.50;97.80;;;;;;5050929;28;20275;-80